Time;durP1;ratioP1;P1;durP2;ratioP2;P2;SDS_P1;SDS_P2;PMS_P1;PMS_P2;Temp;Humidity;BMP_temperature;BMP_pressure;BME280_temperature;BME280_humidity;BME280_pressure;Samples;Min_cycle;Max_cycle;Signal;HPM_P1;HPM_P2
2022/06/19 00:01:18;;;;;;;4.65;3.63;;;;;;;13.42;72.05;93925.69;5076954;28;20463;-42
2022/06/19 00:03:49;;;;;;;5.88;3.90;;;;;;;13.41;72.13;93924.22;5090492;28;20024;-43
2022/06/19 00:06:15;;;;;;;5.07;3.70;;;;;;;13.36;72.13;93923.09;5089795;28;20017;-43
2022/06/19 00:08:41;;;;;;;5.00;4.50;;;;;;;13.25;72.44;93917.19;5080275;28;20100;-44
2022/06/19 00:11:08;;;;;;;8.05;5.18;;;;;;;13.24;72.66;93916.47;5070495;28;20120;-44
2022/06/19 00:13:34;;;;;;;8.85;4.90;;;;;;;13.26;72.73;93913.88;5070317;28;20501;-44
2022/06/19 00:15:59;;;;;;;7.30;4.15;;;;;;;13.17;72.34;93908.13;5070741;28;20047;-45
2022/06/19 00:18:25;;;;;;;5.10;4.60;;;;;;;13.20;72.52;93912.56;5069417;28;20492;-43
2022/06/19 00:20:51;;;;;;;5.93;4.30;;;;;;;12.92;72.57;93911.44;5077125;28;20394;-40
2022/06/19 00:23:16;;;;;;;4.53;4.13;;;;;;;12.95;72.58;93912.34;5086179;28;20031;-44
2022/06/19 00:25:42;;;;;;;8.63;4.03;;;;;;;13.07;72.13;93905.19;5079204;28;20433;-44
2022/06/19 00:28:07;;;;;;;5.32;3.95;;;;;;;13.11;71.85;93919.41;5077043;28;20508;-45
2022/06/19 00:30:33;;;;;;;5.20;4.25;;;;;;;13.10;71.88;93915.19;5089056;28;20437;-42
2022/06/19 00:32:59;;;;;;;4.30;3.90;;;;;;;12.86;72.85;93908.09;5086229;28;20016;-43
2022/06/19 00:35:27;;;;;;;4.00;3.70;;;;;;;12.97;72.62;93906.25;5078613;28;20039;-44
2022/06/19 00:37:54;;;;;;;5.90;4.00;;;;;;;13.04;72.25;93911.78;5078903;28;20553;-45
2022/06/19 00:40:20;;;;;;;6.32;4.57;;;;;;;13.02;71.99;93914.38;5087490;28;20048;-43
2022/06/19 00:42:46;;;;;;;7.40;3.97;;;;;;;12.86;71.40;93904.59;5090209;28;20020;-44
2022/06/19 00:45:50;;;;;;;4.82;3.70;;;;;;;12.87;71.12;93906.81;5090099;28;20082;-43
2022/06/19 00:48:25;;;;;;;5.13;3.67;;;;;;;12.75;71.33;93910.47;5047565;28;20067;-44
2022/06/19 00:50:52;;;;;;;6.32;3.60;;;;;;;12.61;71.87;93909.91;5047598;28;20607;-43
2022/06/19 00:53:26;;;;;;;3.85;3.47;;;;;;;12.60;72.48;93908.44;5050580;28;20422;-44
2022/06/19 00:55:52;;;;;;;5.63;4.05;;;;;;;12.40;72.54;93911.31;5069859;28;20421;-44
2022/06/19 00:58:19;;;;;;;5.05;4.38;;;;;;;12.30;73.52;93918.69;5069966;28;20016;-45
2022/06/19 01:00:47;;;;;;;4.35;3.85;;;;;;;12.23;74.08;93898.00;5069884;28;20067;-44
2022/06/19 01:03:26;;;;;;;5.63;4.22;;;;;;;12.27;73.76;93908.69;5074319;28;20460;-43
2022/06/19 01:05:52;;;;;;;4.40;4.03;;;;;;;12.33;73.07;93915.56;5073067;28;20044;-44
2022/06/19 01:08:18;;;;;;;4.65;3.88;;;;;;;12.12;74.06;93910.13;5080144;28;20027;-43
2022/06/19 01:10:46;;;;;;;4.90;4.43;;;;;;;12.32;73.66;93916.09;5094071;28;20400;-43
2022/06/19 01:13:15;;;;;;;8.80;4.43;;;;;;;12.25;73.51;93886.34;5092861;28;20453;-44
2022/06/19 01:15:40;;;;;;;4.27;3.90;;;;;;;12.44;73.68;93911.69;5092617;28;20032;-42
2022/06/19 01:18:08;;;;;;;5.30;4.28;;;;;;;12.27;74.38;93914.97;5094258;28;20039;-43
2022/06/19 01:20:35;;;;;;;5.63;4.40;;;;;;;12.31;74.30;93911.84;5093935;28;20103;-43
2022/06/19 01:23:13;;;;;;;6.57;4.38;;;;;;;12.42;73.96;93909.50;5093151;28;20107;-43
2022/06/19 01:25:40;;;;;;;6.65;3.97;;;;;;;12.01;74.54;93910.47;5094028;28;20020;-43
2022/06/19 01:30:53;;;;;;;5.18;4.18;;;;;;;12.14;74.02;93907.56;5094118;28;20137;-41
2022/06/19 01:33:30;;;;;;;3.95;3.55;;;;;;;12.08;74.20;93915.25;5075584;28;20028;-43
2022/06/19 01:35:56;;;;;;;8.27;4.20;;;;;;;12.12;73.74;93912.91;5072496;28;20020;-44
2022/06/19 01:38:23;;;;;;;4.75;3.95;;;;;;;12.28;72.38;93913.69;5072496;28;20020;-42
2022/06/19 01:40:53;;;;;;;5.32;3.47;;;;;;;12.32;71.71;93907.81;5072202;28;20020;-42
2022/06/19 01:43:19;;;;;;;6.43;3.65;;;;;;;12.25;71.53;93914.78;5073522;28;20029;-43
2022/06/19 01:45:48;;;;;;;3.72;3.05;;;;;;;12.15;71.90;93914.56;5072123;28;20078;-42
2022/06/19 01:48:13;;;;;;;;;;;;;;;12.05;72.01;93919.13;5082030;28;20030;-41
2022/06/19 01:50:40;;;;;;;4.55;3.60;;;;;;;11.95;71.81;93918.16;5093719;28;19998;-41
2022/06/19 01:53:11;;;;;;;6.15;4.03;;;;;;;11.99;72.25;93915.81;5093396;28;20027;-43
2022/06/19 01:55:37;;;;;;;5.00;3.65;;;;;;;11.86;73.01;93915.91;5091816;28;20097;-41
2022/06/19 01:58:03;;;;;;;8.65;4.03;;;;;;;11.79;73.01;93916.63;5087932;28;20020;-41
2022/06/19 02:00:31;;;;;;;4.93;4.10;;;;;;;11.80;72.11;93915.31;5071747;28;20023;-41
2022/06/19 02:03:03;;;;;;;5.57;3.70;;;;;;;11.75;71.76;93921.75;5079492;28;20489;-42
2022/06/19 02:05:31;;;;;;;5.30;3.85;;;;;;;11.66;72.07;93913.19;5073057;28;20551;-42
2022/06/19 02:07:57;;;;;;;4.22;3.83;;;;;;;11.74;71.89;93922.28;5075931;28;20123;-43
2022/06/19 02:10:23;;;;;;;4.50;3.92;;;;;;;11.62;72.19;93918.31;5093110;28;20479;-44
2022/06/19 02:12:48;;;;;;;4.20;3.78;;;;;;;11.58;73.23;93924.22;5088803;28;20097;-45
2022/06/19 02:15:14;;;;;;;4.68;4.28;;;;;;;11.55;73.90;93925.28;5085051;28;20043;-43
2022/06/19 02:17:44;;;;;;;4.93;4.20;;;;;;;11.54;73.31;93921.06;5101051;28;20416;-44
2022/06/19 02:20:10;;;;;;;6.30;4.38;;;;;;;11.42;74.79;93922.63;5096095;28;20031;-45
2022/06/19 02:22:36;;;;;;;4.47;4.05;;;;;;;11.56;73.55;93912.97;5113151;28;20031;-46
2022/06/19 02:25:03;;;;;;;5.80;4.10;;;;;;;11.39;73.81;93918.19;5104211;28;20027;-43
2022/06/19 02:27:31;;;;;;;4.70;3.75;;;;;;;11.29;74.10;93919.94;5071483;28;20017;-44
2022/06/19 02:29:57;;;;;;;5.13;4.22;;;;;;;11.44;73.38;93926.34;5088167;28;20733;-44
2022/06/19 02:32:38;;;;;;;5.85;4.05;;;;;;;11.46;73.17;93920.25;5072726;28;20024;-43
2022/06/19 02:35:06;;;;;;;4.85;4.32;;;;;;;11.38;73.59;93922.22;5072390;28;20027;-47
2022/06/19 02:37:38;;;;;;;5.30;4.18;;;;;;;11.28;74.28;93924.72;5072465;28;20033;-45
2022/06/19 02:40:10;;;;;;;7.95;4.63;;;;;;;11.30;73.58;93929.75;5072583;28;20055;-44
2022/06/19 02:42:39;;;;;;;5.30;4.80;;;;;;;11.26;73.62;93929.34;5071553;28;20036;-45
2022/06/19 02:45:11;;;;;;;24.92;16.15;;;;;;;11.32;73.95;93932.69;5071154;28;20025;-46
2022/06/19 02:47:37;;;;;;;5.72;5.20;;;;;;;11.27;73.48;93933.56;5072352;28;20024;-43
2022/06/19 02:50:04;;;;;;;10.65;6.05;;;;;;;11.24;74.37;93932.63;5072357;28;20413;-46
2022/06/19 02:52:30;;;;;;;20.17;7.63;;;;;;;11.29;74.22;93926.22;5072016;28;20027;-44
2022/06/19 02:54:56;;;;;;;10.05;8.48;;;;;;;11.30;74.16;93924.94;5071896;28;20053;-45
2022/06/19 02:57:22;;;;;;;9.77;8.88;;;;;;;11.17;73.69;93916.00;5071969;28;20028;-44
2022/06/19 02:59:48;;;;;;;12.65;5.80;;;;;;;11.34;72.98;93941.94;5091961;28;20035;-42
2022/06/19 03:02:14;;;;;;;4.82;4.38;;;;;;;11.28;73.14;93941.31;5092303;28;20063;-42
2022/06/19 03:04:46;;;;;;;6.57;4.35;;;;;;;11.05;73.93;93947.94;5091933;28;20485;-42
2022/06/19 03:07:11;;;;;;;4.35;3.97;;;;;;;11.21;73.67;93942.03;5090092;28;20043;-44
2022/06/19 03:09:36;;;;;;;12.85;3.72;;;;;;;11.04;74.16;93949.25;5073277;28;20036;-44
2022/06/19 03:12:02;;;;;;;7.60;3.50;;;;;;;11.01;73.58;93942.78;5071973;28;20033;-43
2022/06/19 03:14:28;;;;;;;10.23;4.13;;;;;;;10.85;73.43;93943.19;5088806;28;20051;-43
2022/06/19 03:16:53;;;;;;;4.35;3.90;;;;;;;11.10;72.94;93950.59;5092072;28;20032;-43
2022/06/19 03:19:19;;;;;;;4.25;3.83;;;;;;;11.14;72.63;93956.50;5091960;28;20027;-43
2022/06/19 03:21:44;;;;;;;8.98;3.90;;;;;;;11.19;72.75;93961.16;5091874;28;20489;-42
2022/06/19 03:24:10;;;;;;;3.83;3.50;;;;;;;11.15;73.39;93960.75;5091002;28;20404;-43
2022/06/19 03:26:36;;;;;;;4.15;3.75;;;;;;;11.19;73.72;93968.72;5091692;28;20047;-42
2022/06/19 03:29:02;;;;;;;5.28;3.92;;;;;;;11.11;73.15;93965.16;5091864;28;20412;-43
2022/06/19 03:31:29;;;;;;;6.40;3.72;;;;;;;10.81;73.96;93942.75;5091346;28;20487;-42
2022/06/19 03:33:54;;;;;;;6.80;4.55;;;;;;;10.94;73.64;93964.78;5091719;28;20035;-43
2022/06/19 03:36:20;;;;;;;6.03;4.40;;;;;;;11.03;74.18;93961.56;5090520;28;20517;-44
2022/06/19 03:38:46;;;;;;;8.25;4.10;;;;;;;10.99;74.07;93950.84;5090801;28;20024;-41
2022/06/19 03:41:12;;;;;;;4.72;4.28;;;;;;;11.08;73.47;93960.69;5091307;28;20034;-44
2022/06/19 03:43:38;;;;;;;6.22;4.30;;;;;;;10.97;74.29;93958.94;5089659;28;20039;-45
2022/06/19 03:46:07;;;;;;;4.13;3.72;;;;;;;10.98;74.97;93967.97;5091395;28;20020;-43
2022/06/19 03:48:33;;;;;;;4.22;3.70;;;;;;;10.84;74.73;93945.19;5091383;28;20036;-44
2022/06/19 03:50:58;;;;;;;4.57;4.18;;;;;;;11.09;74.70;93968.44;5091328;28;20031;-42
2022/06/19 03:53:24;;;;;;;7.30;5.07;;;;;;;11.05;74.94;93959.75;5091343;28;20452;-42
2022/06/19 03:55:49;;;;;;;7.78;4.70;;;;;;;11.12;74.55;93967.38;5090775;28;20043;-43
2022/06/19 03:58:15;;;;;;;10.18;5.68;;;;;;;11.05;75.63;93959.00;5083867;28;20175;-42
2022/06/19 04:00:41;;;;;;;6.57;4.85;;;;;;;11.22;75.81;93954.53;5070631;28;20024;-42
2022/06/19 04:03:06;;;;;;;5.55;5.05;;;;;;;11.18;75.72;93948.63;5070844;28;20056;-43
2022/06/19 04:05:32;;;;;;;4.35;3.95;;;;;;;11.32;75.59;93949.28;5070501;28;20107;-45
2022/06/19 04:07:57;;;;;;;8.25;4.78;;;;;;;11.37;76.30;93953.91;5074950;28;20032;-44
2022/06/19 04:10:23;;;;;;;5.00;4.60;;;;;;;11.50;76.42;93956.59;5091056;28;20028;-43
2022/06/19 04:12:49;;;;;;;7.28;4.78;;;;;;;11.49;76.29;93954.38;5090325;28;20412;-42
2022/06/19 04:15:14;;;;;;;5.10;4.68;;;;;;;11.50;75.98;93951.06;5090924;28;20016;-43
2022/06/19 04:17:43;;;;;;;5.78;4.80;;;;;;;11.61;76.09;93959.06;5090913;28;20102;-43
2022/06/19 04:20:10;;;;;;;4.55;4.15;;;;;;;11.47;75.95;93938.34;5089235;28;20032;-42
2022/06/19 04:22:36;;;;;;;4.55;4.15;;;;;;;11.69;76.32;93953.63;5090857;28;20051;-46
2022/06/19 04:25:06;;;;;;;5.40;4.90;;;;;;;11.74;76.60;93959.00;5090692;28;20028;-45
2022/06/19 04:27:32;;;;;;;5.50;5.00;;;;;;;11.69;77.06;93945.31;5090988;28;20042;-45
2022/06/19 04:29:58;;;;;;;7.07;6.03;;;;;;;11.67;77.66;93945.13;5090478;28;20070;-44
2022/06/19 04:32:24;;;;;;;6.80;6.00;;;;;;;11.83;78.37;93947.44;5090442;28;20103;-45
2022/06/19 04:34:49;;;;;;;7.00;6.28;;;;;;;11.85;78.60;93942.09;5090698;28;20081;-43
2022/06/19 04:37:15;;;;;;;5.78;5.00;;;;;;;11.99;78.50;93937.94;5090017;28;20401;-44
2022/06/19 04:39:40;;;;;;;6.25;5.20;;;;;;;11.97;79.16;93926.69;5089605;28;20165;-43
2022/06/19 04:42:07;;;;;;;5.72;5.22;;;;;;;12.06;80.17;93944.78;5070124;28;20024;-42
2022/06/19 04:44:33;;;;;;;6.53;5.15;;;;;;;12.16;80.11;93940.97;5070324;28;20021;-41
2022/06/19 04:46:59;;;;;;;6.82;5.10;;;;;;;12.11;79.88;93916.94;5070328;28;20055;-42
2022/06/19 04:49:24;;;;;;;7.00;5.18;;;;;;;12.26;79.94;93921.06;5070073;28;20100;-42
2022/06/19 04:51:50;;;;;;;5.03;4.60;;;;;;;12.49;79.77;93942.00;5069929;28;20027;-43
2022/06/19 04:54:15;;;;;;;5.45;4.57;;;;;;;12.58;79.62;93944.22;5070013;28;20059;-42
2022/06/19 04:56:42;;;;;;;5.88;4.80;;;;;;;12.68;79.82;93936.88;5082210;28;20044;-44
2022/06/19 04:59:08;;;;;;;6.13;4.63;;;;;;;12.78;79.89;93937.06;5075748;28;20035;-42
2022/06/19 05:01:36;;;;;;;5.68;4.28;;;;;;;12.81;79.86;93933.22;5070160;28;20024;-42
2022/06/19 05:04:04;;;;;;;8.38;4.70;;;;;;;12.90;80.47;93935.44;5069937;28;20032;-43
2022/06/19 05:06:30;;;;;;;13.03;5.20;;;;;;;12.98;80.13;93938.97;5069840;28;20489;-43
2022/06/19 05:08:56;;;;;;;8.90;5.03;;;;;;;13.12;80.20;93940.31;5082388;28;20026;-44
2022/06/19 05:11:22;;;;;;;3.47;3.17;;;;;;;13.28;80.01;93935.50;5090358;28;20474;-42
2022/06/19 05:13:48;;;;;;;6.43;3.28;;;;;;;13.40;78.67;93933.84;5079337;28;20030;-44
2022/06/19 05:16:17;;;;;;;17.17;4.20;;;;;;;13.56;78.32;93936.03;5074006;28;20485;-43
2022/06/19 05:18:43;;;;;;;4.25;3.72;;;;;;;13.68;78.42;93933.63;5070057;28;20027;-42
2022/06/19 05:21:09;;;;;;;11.45;8.05;;;;;;;13.81;78.18;93941.00;5088871;28;20099;-43
2022/06/19 05:23:36;;;;;;;12.50;6.93;;;;;;;13.95;77.15;93939.47;5090121;28;20027;-42
2022/06/19 05:26:10;;;;;;;9.00;5.80;;;;;;;14.04;77.06;93936.88;5090058;28;20035;-42
2022/06/19 05:28:35;;;;;;;7.40;5.50;;;;;;;14.08;76.80;93942.03;5089820;28;20496;-43
2022/06/19 05:31:01;;;;;;;6.28;4.50;;;;;;;14.15;77.11;93936.47;5090107;28;20039;-42
2022/06/19 05:33:27;;;;;;;6.22;4.88;;;;;;;14.23;76.17;93939.94;5089388;28;20105;-42
2022/06/19 05:35:53;;;;;;;7.78;5.95;;;;;;;14.25;76.97;93942.91;5089744;28;20024;-42
2022/06/19 05:38:19;;;;;;;6.28;5.65;;;;;;;14.32;77.17;93939.38;5069841;28;20031;-46
2022/06/19 05:40:45;;;;;;;8.60;4.10;;;;;;;14.46;75.47;93939.91;5069561;28;20025;-43
2022/06/19 05:43:11;;;;;;;4.53;4.13;;;;;;;14.49;77.09;93941.53;5086274;28;20032;-44
2022/06/19 05:45:36;;;;;;;4.75;4.22;;;;;;;14.63;78.39;93944.81;5089510;28;20576;-42
2022/06/19 05:48:02;;;;;;;7.38;4.25;;;;;;;14.72;77.92;93949.78;5091250;28;20024;-43
2022/06/19 05:50:28;;;;;;;5.20;4.47;;;;;;;14.77;76.19;93943.28;5093379;28;20585;-43
2022/06/19 05:52:54;;;;;;;6.93;4.32;;;;;;;14.80;76.18;93948.44;5083628;28;20024;-42
2022/06/19 05:55:19;;;;;;;3.15;2.85;;;;;;;14.95;73.82;93937.22;5093203;28;20040;-44
2022/06/19 05:57:45;;;;;;;4.57;2.95;;;;;;;15.10;72.56;93941.94;5092129;28;20186;-42
2022/06/19 06:00:10;;;;;;;5.00;3.58;;;;;;;15.14;73.65;93934.66;5092700;28;20027;-44
2022/06/19 06:02:36;;;;;;;7.10;3.90;;;;;;;15.19;75.60;93938.53;5093092;28;20066;-47
2022/06/19 06:05:03;;;;;;;4.60;3.63;;;;;;;15.30;75.56;93949.22;5093395;28;20035;-43
2022/06/19 06:07:28;;;;;;;11.52;3.42;;;;;;;15.37;73.39;93940.06;5091250;28;20034;-46
2022/06/19 06:09:54;;;;;;;3.53;2.63;;;;;;;15.37;73.50;93920.59;5090313;28;20111;-44
2022/06/19 06:12:19;;;;;;;3.20;2.90;;;;;;;15.63;72.98;93947.13;5084088;28;20028;-46
2022/06/19 06:14:45;;;;;;;2.65;2.40;;;;;;;15.71;71.95;93945.00;5072284;28;20017;-43
2022/06/19 06:17:10;;;;;;;3.53;2.58;;;;;;;15.84;73.61;93945.44;5072931;28;20037;-44
2022/06/19 06:19:36;;;;;;;2.60;2.40;;;;;;;16.02;71.36;93934.31;5077275;28;20512;-46
2022/06/19 06:22:03;;;;;;;3.13;2.60;;;;;;;16.02;71.32;93932.28;5093048;28;20103;-42
2022/06/19 06:24:29;;;;;;;2.88;2.13;;;;;;;16.23;71.86;93940.94;5092939;28;20051;-45
2022/06/19 06:26:55;;;;;;;2.45;2.17;;;;;;;16.44;69.54;93941.25;5092957;28;20105;-45
2022/06/19 06:29:21;;;;;;;2.22;2.03;;;;;;;16.52;68.06;93941.91;5092634;28;20032;-46
2022/06/19 06:31:47;;;;;;;5.35;2.00;;;;;;;16.65;68.73;93936.00;5082455;28;20028;-45
2022/06/19 06:34:12;;;;;;;2.38;2.17;;;;;;;16.86;67.27;93934.81;5076633;28;20027;-43
2022/06/19 06:36:38;;;;;;;2.92;2.10;;;;;;;17.09;63.59;93933.16;5083604;28;20099;-45
2022/06/19 06:39:04;;;;;;;1.65;1.45;;;;;;;17.22;58.82;93932.03;5080113;28;20065;-45
2022/06/19 06:41:29;;;;;;;4.43;1.55;;;;;;;17.43;59.71;93937.88;5091878;28;20455;-44
2022/06/19 06:43:55;;;;;;;1.92;1.38;;;;;;;17.56;61.10;93933.97;5072473;28;20109;-45
2022/06/19 06:46:23;;;;;;;1.55;1.45;;;;;;;17.58;59.51;93936.94;5082577;28;20107;-41
2022/06/19 06:48:50;;;;;;;2.13;1.25;;;;;;;17.78;54.79;93939.16;5090519;28;20107;-44
2022/06/19 06:51:18;;;;;;;1.80;1.38;;;;;;;17.88;57.23;93934.38;5092536;28;20031;-45
2022/06/19 06:53:44;;;;;;;2.95;1.45;;;;;;;17.88;52.47;93928.78;5092397;28;20028;-43
2022/06/19 06:56:10;;;;;;;2.60;1.50;;;;;;;17.94;52.43;93923.63;5092192;28;20020;-44
2022/06/19 06:58:36;;;;;;;1.65;1.55;;;;;;;18.12;53.02;93936.16;5082318;28;20028;-45
2022/06/19 07:01:07;;;;;;;2.63;1.52;;;;;;;18.26;56.00;93932.94;5088775;28;20093;-45
2022/06/19 07:03:33;;;;;;;4.18;1.40;;;;;;;18.32;46.91;93928.50;5091955;28;20089;-45
2022/06/19 07:05:58;;;;;;;4.40;1.42;;;;;;;18.57;48.48;93931.03;5091823;28;20020;-47
2022/06/19 07:08:24;;;;;;;2.63;1.63;;;;;;;18.93;51.29;93922.44;5083331;28;20028;-44
2022/06/19 07:10:49;;;;;;;2.53;1.30;;;;;;;19.19;53.58;93915.88;5078500;28;20024;-46
2022/06/19 07:13:15;;;;;;;2.75;1.25;;;;;;;19.55;50.93;93917.69;5084094;28;20051;-46
2022/06/19 07:15:40;;;;;;;2.05;1.55;;;;;;;19.90;48.58;93917.94;5073954;28;20031;-43
2022/06/19 07:18:06;;;;;;;1.40;1.30;;;;;;;20.23;47.37;93915.97;5090901;28;20027;-45
2022/06/19 07:20:31;;;;;;;5.05;1.35;;;;;;;20.70;47.60;93909.25;5091561;28;20022;-46
2022/06/19 07:22:57;;;;;;;2.47;1.00;;;;;;;21.59;43.30;93918.31;5093636;28;20028;-45
2022/06/19 07:25:22;;;;;;;1.85;1.20;;;;;;;22.63;41.83;93892.88;5091799;28;20016;-45
2022/06/19 07:27:48;;;;;;;2.42;1.20;;;;;;;23.55;38.78;93909.88;5091449;28;20115;-46
2022/06/19 07:30:20;;;;;;;1.45;1.02;;;;;;;24.39;38.42;93903.00;5091378;28;20107;-47
2022/06/19 07:32:45;;;;;;;1.30;1.05;;;;;;;24.49;36.98;93905.63;5091781;28;20024;-45
2022/06/19 07:35:11;;;;;;;4.55;1.83;;;;;;;25.26;36.56;93910.78;5091715;28;20024;-45
2022/06/19 07:37:37;;;;;;;1.05;0.80;;;;;;;25.97;32.05;93911.19;5091279;28;20020;-45
2022/06/19 07:40:03;;;;;;;4.22;1.15;;;;;;;27.09;31.78;93908.91;5091429;28;20028;-46
2022/06/19 07:42:29;;;;;;;4.00;0.98;;;;;;;28.10;31.78;93896.50;5091497;28;20024;-44
2022/06/19 07:44:54;;;;;;;1.05;0.95;;;;;;;28.47;28.09;93899.22;5086246;28;20087;-44
2022/06/19 07:50:11;;;;;;;3.53;0.82;;;;;;;28.22;27.25;93908.28;5088612;28;20035;-45
2022/06/19 07:52:42;;;;;;;2.83;0.80;;;;;;;27.44;26.71;93900.41;5089644;28;20016;-44
2022/06/19 07:55:09;;;;;;;3.70;0.88;;;;;;;27.73;29.02;93905.75;5089164;28;20048;-44
2022/06/19 07:57:35;;;;;;;0.90;0.85;;;;;;;27.54;28.37;93906.44;5089493;28;20081;-45
2022/06/19 08:00:00;;;;;;;3.00;0.98;;;;;;;27.08;29.43;93911.00;5090232;28;20308;-45
2022/06/19 08:02:26;;;;;;;5.05;1.00;;;;;;;27.29;32.00;93899.09;5089774;28;20066;-45
2022/06/19 08:04:52;;;;;;;1.02;0.90;;;;;;;28.12;29.51;93894.47;5088756;28;20028;-44
2022/06/19 08:07:18;;;;;;;2.67;1.02;;;;;;;28.36;26.96;93906.69;5089124;28;20102;-43
2022/06/19 08:09:45;;;;;;;2.03;1.23;;;;;;;28.58;27.78;93901.06;5088768;28;20020;-46
2022/06/19 08:12:11;;;;;;;1.05;0.80;;;;;;;29.23;27.54;93916.06;5087661;28;20493;-45
2022/06/19 08:14:36;;;;;;;1.45;0.98;;;;;;;29.75;26.49;93905.59;5069032;28;20020;-44
2022/06/19 08:17:02;;;;;;;1.83;0.70;;;;;;;29.66;26.49;93906.72;5068141;28;20025;-44
2022/06/19 08:19:27;;;;;;;2.38;1.10;;;;;;;28.90;27.71;93910.66;5077652;28;20077;-48
2022/06/19 08:21:53;;;;;;;1.48;1.10;;;;;;;28.32;29.57;93908.66;5077029;28;20408;-45
2022/06/19 08:24:19;;;;;;;1.55;0.80;;;;;;;28.25;29.16;93912.66;5078538;28;20044;-43
2022/06/19 08:26:45;;;;;;;1.02;0.70;;;;;;;28.87;27.97;93911.28;5085348;28;20060;-43
2022/06/19 08:29:10;;;;;;;2.47;0.88;;;;;;;29.09;27.83;93906.28;5080536;28;20028;-43
2022/06/19 08:31:36;;;;;;;1.70;1.05;;;;;;;28.93;27.28;93905.78;5079922;28;20025;-44
2022/06/19 08:34:02;;;;;;;2.05;1.10;;;;;;;28.44;28.54;93901.28;5081250;28;20059;-45
2022/06/19 08:36:28;;;;;;;4.90;1.10;;;;;;;28.34;29.02;93909.44;5084149;28;20603;-43
2022/06/19 08:38:58;;;;;;;0.65;0.50;;;;;;;28.67;27.06;93908.47;5080261;28;20024;-43
2022/06/19 08:41:32;;;;;;;1.00;0.80;;;;;;;28.83;26.83;93906.16;5077018;28;20028;-43
2022/06/19 08:44:26;;;;;;;3.50;0.80;;;;;;;29.29;30.15;93900.56;5078300;28;20024;-44
2022/06/19 08:47:03;;;;;;;2.03;1.10;;;;;;;30.61;25.87;93895.19;5080011;28;20024;-44
2022/06/19 08:49:36;;;;;;;21.42;2.10;;;;;;;32.01;25.98;93903.59;5078741;28;20012;-43
2022/06/19 08:52:04;;;;;;;3.70;0.90;;;;;;;31.78;21.77;93895.22;5076980;28;20417;-46
2022/06/19 08:54:32;;;;;;;1.00;0.82;;;;;;;32.17;22.64;93886.81;5079173;28;20118;-47
2022/06/19 08:57:10;;;;;;;0.80;0.80;;;;;;;32.58;21.77;93890.47;5081114;28;20524;-45
2022/06/19 09:00:03;;;;;;;16.77;1.63;;;;;;;32.50;20.08;93887.44;5076793;28;20038;-48
2022/06/19 09:02:47;;;;;;;6.03;1.23;;;;;;;33.18;23.06;93891.53;5080013;28;20672;-47
2022/06/19 09:05:46;;;;;;;1.08;0.50;;;;;;;33.62;19.45;93880.09;5078116;28;20408;-45
2022/06/19 09:08:18;;;;;;;2.15;1.10;;;;;;;32.82;22.32;93891.63;5080577;28;20040;-45
2022/06/19 09:11:22;;;;;;;1.40;0.70;;;;;;;31.98;21.02;93887.84;5078315;28;20060;-44
2022/06/19 09:13:51;;;;;;;2.35;0.68;;;;;;;30.73;22.00;93894.78;5072216;28;20100;-46
2022/06/19 09:16:19;;;;;;;2.03;1.00;;;;;;;30.13;25.30;93893.84;5077535;28;20025;-45
2022/06/19 09:19:14;;;;;;;2.42;1.02;;;;;;;29.91;24.21;93879.69;5077516;28;20489;-44
2022/06/19 09:22:14;;;;;;;3.38;1.60;;;;;;;29.45;25.99;93881.16;5072775;28;20055;-44
2022/06/19 09:24:48;;;;;;;4.93;0.90;;;;;;;28.56;26.13;93883.19;5081636;28;20082;-44
2022/06/19 09:27:15;;;;;;;1.25;1.10;;;;;;;27.94;26.72;93885.25;5082821;28;20386;-43
2022/06/19 09:29:47;;;;;;;5.43;1.60;;;;;;;27.45;26.83;93877.06;5083056;28;20265;-43
2022/06/19 09:32:20;;;;;;;1.90;1.60;;;;;;;26.95;29.66;93872.94;5073852;28;20032;-45
2022/06/19 09:35:00;;;;;;;4.55;2.42;;;;;;;26.62;30.30;93887.16;5073875;28;20028;-46
2022/06/19 09:37:57;;;;;;;3.92;2.00;;;;;;;26.02;30.44;93871.13;5073713;28;20627;-40
2022/06/19 09:40:30;;;;;;;1.67;1.08;;;;;;;25.88;33.09;93881.13;5072083;28;20040;-41
2022/06/19 09:43:28;;;;;;;35.30;3.58;;;;;;;26.15;34.53;93875.25;5075523;28;20040;-40
2022/06/19 09:45:55;;;;;;;3.50;1.75;;;;;;;26.18;34.63;93880.34;5072732;28;20569;-42
2022/06/19 09:48:31;;;;;;;7.28;1.23;;;;;;;26.59;34.97;93874.28;5073497;28;20104;-42
2022/06/19 09:51:11;;;;;;;1.27;1.05;;;;;;;26.97;30.34;93870.19;5072328;28;20028;-44
2022/06/19 09:53:49;;;;;;;1.85;1.10;;;;;;;26.84;32.03;93876.75;5071934;28;20028;-42
2022/06/19 09:56:28;;;;;;;3.40;1.30;;;;;;;26.64;31.20;93867.41;5073367;28;20045;-42
2022/06/19 09:59:16;;;;;;;1.70;1.42;;;;;;;26.18;33.29;93873.97;5084191;28;20550;-43
2022/06/19 10:01:43;;;;;;;1.35;1.25;;;;;;;27.02;32.93;93871.81;5089934;28;20527;-42
2022/06/19 10:04:15;;;;;;;6.40;2.10;;;;;;;27.33;32.74;93873.72;5092016;28;20111;-43
2022/06/19 10:06:45;;;;;;;1.95;1.30;;;;;;;27.06;31.65;93876.91;5091912;28;20535;-43
2022/06/19 10:09:25;;;;;;;1.75;1.55;;;;;;;27.10;33.79;93877.06;5077632;28;20037;-43
2022/06/19 10:11:54;;;;;;;4.07;2.50;;;;;;;27.18;32.30;93868.16;5071857;28;20032;-42
2022/06/19 10:14:29;;;;;;;14.90;2.60;;;;;;;27.14;33.02;93865.88;5072368;28;20028;-43
2022/06/19 10:17:00;;;;;;;2.00;1.00;;;;;;;26.69;31.42;93868.28;5073060;28;20103;-42
2022/06/19 10:19:41;;;;;;;0.75;0.75;;;;;;;26.96;30.89;93863.06;5091995;28;20032;-41
2022/06/19 10:22:31;;;;;;;1.42;1.00;;;;;;;27.53;30.64;93871.69;5093226;28;20051;-41
2022/06/19 10:25:26;;;;;;;3.83;1.70;;;;;;;29.19;28.02;93861.16;5093086;28;20064;-41
2022/06/19 10:28:10;;;;;;;3.15;0.90;;;;;;;30.25;27.70;93871.41;5069918;28;20044;-41
2022/06/19 10:30:59;;;;;;;0.95;0.85;;;;;;;29.68;27.58;93858.38;5093049;28;20042;-44
2022/06/19 10:33:52;;;;;;;1.05;0.95;;;;;;;29.61;26.93;93850.31;5090882;28;20039;-45
2022/06/19 10:36:49;;;;;;;0.82;0.80;;;;;;;29.77;23.99;93851.56;5093026;28;20028;-43
2022/06/19 10:39:29;;;;;;;1.33;1.10;;;;;;;29.30;28.23;93847.97;5090367;28;20429;-44
2022/06/19 10:42:18;;;;;;;19.33;9.20;;;;;;;29.41;26.64;93844.06;5091296;28;20085;-45
2022/06/19 10:45:07;;;;;;;17.88;6.85;;;;;;;30.16;24.93;93841.97;5091820;28;20493;-45
2022/06/19 10:47:49;;;;;;;4.18;0.90;;;;;;;29.87;24.53;93846.16;5089531;28;20103;-45
2022/06/19 10:50:20;;;;;;;4.88;1.33;;;;;;;29.31;26.19;93840.88;5071456;28;20151;-44
2022/06/19 10:53:24;;;;;;;1.88;0.80;;;;;;;28.67;26.99;93840.28;5092489;28;20036;-44
2022/06/19 10:55:52;;;;;;;2.92;1.10;;;;;;;27.58;29.81;93841.38;5091841;28;20058;-46
2022/06/19 10:58:25;;;;;;;1.65;0.90;;;;;;;26.92;29.59;93845.19;5090670;28;20020;-43
2022/06/19 11:00:54;;;;;;;10.10;1.83;;;;;;;26.73;32.99;93845.81;5080055;28;20415;-43
2022/06/19 11:06:17;;;;;;;1.85;1.00;;;;;;;28.64;27.47;93826.66;5086806;28;20047;-44
2022/06/19 11:08:46;;;;;;;3.10;0.95;;;;;;;29.39;24.41;93830.47;5084587;28;20111;-45
2022/06/19 11:11:16;;;;;;;1.48;0.90;;;;;;;29.59;24.26;93822.53;5087681;28;20693;-47
2022/06/19 11:14:00;;;;;;;2.70;1.00;;;;;;;28.74;27.05;93830.53;5081027;28;20081;-47
2022/06/19 11:16:27;;;;;;;1.95;0.82;;;;;;;27.92;27.06;93828.41;5107002;28;20026;-47
2022/06/19 11:18:57;;;;;;;0.80;0.80;;;;;;;27.14;26.83;93829.03;5106829;28;20110;-47
2022/06/19 11:21:29;;;;;;;3.70;0.90;;;;;;;26.63;28.06;93831.97;5093446;28;20027;-46
2022/06/19 11:24:03;;;;;;;1.02;0.70;;;;;;;26.72;28.62;93824.53;5090766;28;20028;-46
2022/06/19 11:26:41;;;;;;;0.93;0.70;;;;;;;26.81;30.54;93820.66;5091872;28;20032;-46
2022/06/19 11:29:13;;;;;;;4.88;1.42;;;;;;;27.10;32.25;93819.66;5090801;28;20028;-47
2022/06/19 11:31:41;;;;;;;1.90;1.10;;;;;;;27.34;26.41;93820.56;5091802;28;20105;-45
2022/06/19 11:37:26;;;;;;;2.50;1.13;;;;;;;26.86;27.85;93803.16;5091693;28;20088;-46
2022/06/19 11:40:20;;;;;;;0.88;0.70;;;;;;;26.63;28.33;93805.75;5089894;28;20105;-41
2022/06/19 11:42:59;;;;;;;7.85;1.35;;;;;;;26.69;28.12;93801.03;5097409;28;20050;-41
2022/06/19 11:45:36;;;;;;;1.33;1.23;;;;;;;26.82;29.36;93794.50;5090529;28;20024;-42
2022/06/19 11:48:13;;;;;;;2.28;0.80;;;;;;;26.90;28.12;93799.75;5091527;28;20032;-42
2022/06/19 11:50:41;;;;;;;1.50;1.20;;;;;;;26.77;31.94;93795.72;5084363;28;20111;-42
2022/06/19 11:53:06;;;;;;;1.88;0.90;;;;;;;27.13;31.17;93801.34;5094634;28;20036;-42
2022/06/19 11:55:38;;;;;;;4.15;1.15;;;;;;;27.09;31.72;93792.69;5103455;28;20047;-41
2022/06/19 11:58:41;;;;;;;3.53;1.10;;;;;;;26.83;29.33;93793.13;5080034;28;20517;-42